sensor_id;sensor_type;location;lat;lon;timestamp;pressure;altitude;pressure_sealevel;temperature;humidity
18985;BME280;9626;52.552;13.436;2023-02-16T00:01:51;101735.16;;;1.75;100.00
18985;BME280;9626;52.552;13.436;2023-02-16T00:04:22;101732.44;;;1.72;100.00
18985;BME280;9626;52.552;13.436;2023-02-16T00:06:50;101731.56;;;1.71;100.00
18985;BME280;9626;52.552;13.436;2023-02-16T00:09:16;101731.88;;;1.80;100.00
18985;BME280;9626;52.552;13.436;2023-02-16T00:11:43;101737.19;;;1.83;100.00
18985;BME280;9626;52.552;13.436;2023-02-16T00:14:29;101730.88;;;1.77;100.00
18985;BME280;9626;52.552;13.436;2023-02-16T00:16:57;101737.59;;;1.70;100.00
18985;BME280;9626;52.552;13.436;2023-02-16T00:19:26;101739.97;;;1.62;100.00
18985;BME280;9626;52.552;13.436;2023-02-16T00:21:55;101746.03;;;1.61;100.00
18985;BME280;9626;52.552;13.436;2023-02-16T00:24:23;101747.66;;;1.58;100.00
18985;BME280;9626;52.552;13.436;2023-02-16T00:26:49;101745.03;;;1.58;100.00
18985;BME280;9626;52.552;13.436;2023-02-16T00:29:26;101739.66;;;1.53;100.00
18985;BME280;9626;52.552;13.436;2023-02-16T00:31:53;101744.06;;;1.54;100.00
18985;BME280;9626;52.552;13.436;2023-02-16T00:36:56;101746.88;;;1.60;100.00
18985;BME280;9626;52.552;13.436;2023-02-16T00:39:23;101735.69;;;1.64;100.00
18985;BME280;9626;52.552;13.436;2023-02-16T00:41:51;101737.38;;;1.62;100.00
18985;BME280;9626;52.552;13.436;2023-02-16T00:44:22;101741.78;;;1.65;100.00
18985;BME280;9626;52.552;13.436;2023-02-16T00:46:49;101738.94;;;1.57;100.00
18985;BME280;9626;52.552;13.436;2023-02-16T00:49:18;101725.50;;;1.46;100.00
18985;BME280;9626;52.552;13.436;2023-02-16T00:51:45;101742.78;;;1.43;100.00
18985;BME280;9626;52.552;13.436;2023-02-16T00:54:14;101734.13;;;1.44;100.00
18985;BME280;9626;52.552;13.436;2023-02-16T00:56:40;101737.78;;;1.49;100.00
18985;BME280;9626;52.552;13.436;2023-02-16T00:59:13;101732.28;;;1.41;100.00
18985;BME280;9626;52.552;13.436;2023-02-16T01:01:41;101737.41;;;1.38;100.00
18985;BME280;9626;52.552;13.436;2023-02-16T01:04:10;101736.41;;;1.34;100.00
18985;BME280;9626;52.552;13.436;2023-02-16T01:06:37;101737.97;;;1.29;100.00
18985;BME280;9626;52.552;13.436;2023-02-16T01:09:21;101737.88;;;1.26;100.00
18985;BME280;9626;52.552;13.436;2023-02-16T01:12:13;101740.31;;;1.22;100.00
18985;BME280;9626;52.552;13.436;2023-02-16T01:14:40;101745.25;;;1.14;100.00
18985;BME280;9626;52.552;13.436;2023-02-16T01:17:06;101744.44;;;1.15;100.00
18985;BME280;9626;52.552;13.436;2023-02-16T01:19:32;101741.88;;;1.16;100.00
18985;BME280;9626;52.552;13.436;2023-02-16T01:21:58;101732.66;;;1.26;100.00
18985;BME280;9626;52.552;13.436;2023-02-16T01:24:24;101737.84;;;1.50;100.00
18985;BME280;9626;52.552;13.436;2023-02-16T01:26:50;101726.72;;;1.56;100.00
18985;BME280;9626;52.552;13.436;2023-02-16T01:29:18;101728.69;;;1.63;100.00
18985;BME280;9626;52.552;13.436;2023-02-16T01:31:45;101732.44;;;1.72;100.00
18985;BME280;9626;52.552;13.436;2023-02-16T01:34:12;101721.91;;;1.68;100.00
18985;BME280;9626;52.552;13.436;2023-02-16T01:36:41;101725.78;;;1.54;100.00
18985;BME280;9626;52.552;13.436;2023-02-16T01:39:11;101705.81;;;1.56;100.00
18985;BME280;9626;52.552;13.436;2023-02-16T01:44:42;101713.50;;;1.51;100.00
18985;BME280;9626;52.552;13.436;2023-02-16T01:49:48;101705.81;;;1.30;100.00
18985;BME280;9626;52.552;13.436;2023-02-16T01:52:34;101708.44;;;1.30;100.00
18985;BME280;9626;52.552;13.436;2023-02-16T01:55:22;101703.44;;;1.37;100.00
18985;BME280;9626;52.552;13.436;2023-02-16T01:57:53;101715.75;;;1.41;100.00
18985;BME280;9626;52.552;13.436;2023-02-16T02:03:17;101707.50;;;1.54;100.00
18985;BME280;9626;52.552;13.436;2023-02-16T02:06:03;101711.19;;;1.61;100.00
18985;BME280;9626;52.552;13.436;2023-02-16T02:08:42;101710.34;;;1.62;100.00
18985;BME280;9626;52.552;13.436;2023-02-16T02:11:14;101717.56;;;1.96;100.00
18985;BME280;9626;52.552;13.436;2023-02-16T02:13:51;101717.84;;;2.06;100.00
18985;BME280;9626;52.552;13.436;2023-02-16T02:16:19;101716.16;;;2.06;100.00
18985;BME280;9626;52.552;13.436;2023-02-16T02:18:46;101706.31;;;1.99;100.00
18985;BME280;9626;52.552;13.436;2023-02-16T02:27:56;101704.97;;;2.10;100.00
18985;BME280;9626;52.552;13.436;2023-02-16T02:33:25;101709.88;;;2.01;100.00
18985;BME280;9626;52.552;13.436;2023-02-16T02:36:24;101709.09;;;2.03;100.00
18985;BME280;9626;52.552;13.436;2023-02-16T02:39:18;101702.09;;;2.02;100.00
18985;BME280;9626;52.552;13.436;2023-02-16T02:42:23;101703.88;;;2.03;100.00
18985;BME280;9626;52.552;13.436;2023-02-16T02:44:55;101701.59;;;2.14;100.00
18985;BME280;9626;52.552;13.436;2023-02-16T02:47:22;101698.81;;;2.10;100.00
18985;BME280;9626;52.552;13.436;2023-02-16T02:49:52;101702.09;;;2.02;100.00
18985;BME280;9626;52.552;13.436;2023-02-16T02:52:19;101700.13;;;1.95;100.00
18985;BME280;9626;52.552;13.436;2023-02-16T02:54:48;101690.47;;;1.93;100.00
18985;BME280;9626;52.552;13.436;2023-02-16T02:57:39;101686.94;;;1.92;100.00
18985;BME280;9626;52.552;13.436;2023-02-16T03:03:50;101684.25;;;1.89;100.00
18985;BME280;9626;52.552;13.436;2023-02-16T03:06:40;101683.16;;;1.82;100.00
18985;BME280;9626;52.552;13.436;2023-02-16T03:09:11;101677.81;;;1.78;100.00
18985;BME280;9626;52.552;13.436;2023-02-16T03:11:39;101673.63;;;1.56;100.00
18985;BME280;9626;52.552;13.436;2023-02-16T03:14:41;101681.56;;;1.33;100.00
18985;BME280;9626;52.552;13.436;2023-02-16T03:17:15;101678.66;;;1.25;100.00
18985;BME280;9626;52.552;13.436;2023-02-16T03:20:05;101675.88;;;1.19;100.00
18985;BME280;9626;52.552;13.436;2023-02-16T03:22:51;101673.16;;;1.16;100.00
18985;BME280;9626;52.552;13.436;2023-02-16T03:25:54;101679.16;;;1.13;100.00
18985;BME280;9626;52.552;13.436;2023-02-16T03:28:41;101678.94;;;1.07;100.00
18985;BME280;9626;52.552;13.436;2023-02-16T03:31:37;101681.50;;;1.06;100.00
18985;BME280;9626;52.552;13.436;2023-02-16T03:34:04;101684.00;;;1.03;100.00
18985;BME280;9626;52.552;13.436;2023-02-16T03:36:32;101689.16;;;1.01;100.00
18985;BME280;9626;52.552;13.436;2023-02-16T03:39:18;101678.78;;;1.03;100.00
18985;BME280;9626;52.552;13.436;2023-02-16T03:41:49;101677.09;;;1.05;100.00
18985;BME280;9626;52.552;13.436;2023-02-16T03:44:16;101690.91;;;1.02;100.00
18985;BME280;9626;52.552;13.436;2023-02-16T03:46:43;101685.59;;;0.99;100.00
18985;BME280;9626;52.552;13.436;2023-02-16T03:49:09;101679.38;;;0.95;100.00
18985;BME280;9626;52.552;13.436;2023-02-16T03:51:35;101678.44;;;0.93;100.00
18985;BME280;9626;52.552;13.436;2023-02-16T03:54:02;101680.34;;;0.97;100.00
18985;BME280;9626;52.552;13.436;2023-02-16T03:56:28;101674.28;;;0.98;100.00
18985;BME280;9626;52.552;13.436;2023-02-16T03:58:54;101680.63;;;1.05;100.00
18985;BME280;9626;52.552;13.436;2023-02-16T04:01:20;101683.13;;;1.04;100.00
18985;BME280;9626;52.552;13.436;2023-02-16T04:03:46;101679.50;;;0.98;100.00
18985;BME280;9626;52.552;13.436;2023-02-16T04:06:11;101680.44;;;1.00;100.00
18985;BME280;9626;52.552;13.436;2023-02-16T04:08:37;101680.63;;;1.05;100.00
18985;BME280;9626;52.552;13.436;2023-02-16T04:11:03;101684.91;;;1.05;100.00
18985;BME280;9626;52.552;13.436;2023-02-16T04:13:49;101681.38;;;1.03;100.00
18985;BME280;9626;52.552;13.436;2023-02-16T04:16:15;101677.63;;;0.94;100.00
18985;BME280;9626;52.552;13.436;2023-02-16T04:18:41;101678.50;;;0.95;100.00
18985;BME280;9626;52.552;13.436;2023-02-16T04:21:07;101677.63;;;0.94;100.00
18985;BME280;9626;52.552;13.436;2023-02-16T04:23:33;101682.06;;;0.97;100.00
18985;BME280;9626;52.552;13.436;2023-02-16T04:25:59;101677.69;;;0.96;100.00
18985;BME280;9626;52.552;13.436;2023-02-16T04:28:25;101672.47;;;0.96;100.00
18985;BME280;9626;52.552;13.436;2023-02-16T04:30:51;101679.50;;;0.98;100.00
18985;BME280;9626;52.552;13.436;2023-02-16T04:33:17;101673.34;;;0.96;100.00
18985;BME280;9626;52.552;13.436;2023-02-16T04:35:43;101680.28;;;0.96;100.00
18985;BME280;9626;52.552;13.436;2023-02-16T04:38:09;101673.09;;;0.89;100.00
18985;BME280;9626;52.552;13.436;2023-02-16T04:40:35;101673.13;;;0.90;100.00
18985;BME280;9626;52.552;13.436;2023-02-16T04:43:01;101671.53;;;0.95;100.00
18985;BME280;9626;52.552;13.436;2023-02-16T04:45:27;101675.06;;;0.96;100.00
18985;BME280;9626;52.552;13.436;2023-02-16T04:47:53;101672.59;;;1.00;100.00
18985;BME280;9626;52.552;13.436;2023-02-16T04:50:19;101667.06;;;0.91;100.00
18985;BME280;9626;52.552;13.436;2023-02-16T04:52:45;101664.28;;;0.87;100.00
18985;BME280;9626;52.552;13.436;2023-02-16T04:55:11;101666.97;;;0.88;100.00
18985;BME280;9626;52.552;13.436;2023-02-16T04:57:38;101665.06;;;0.84;100.00
18985;BME280;9626;52.552;13.436;2023-02-16T05:00:06;101675.41;;;0.81;100.00
18985;BME280;9626;52.552;13.436;2023-02-16T05:02:32;101659.84;;;0.84;100.00
18985;BME280;9626;52.552;13.436;2023-02-16T05:04:58;101661.53;;;0.82;100.00
18985;BME280;9626;52.552;13.436;2023-02-16T05:07:24;101660.53;;;0.78;100.00
18985;BME280;9626;52.552;13.436;2023-02-16T05:09:50;101657.16;;;0.81;100.00
18985;BME280;9626;52.552;13.436;2023-02-16T05:12:16;101666.63;;;0.79;100.00
18985;BME280;9626;52.552;13.436;2023-02-16T05:15:02;101669.91;;;0.73;100.00
18985;BME280;9626;52.552;13.436;2023-02-16T05:17:28;101675.06;;;0.72;100.00
18985;BME280;9626;52.552;13.436;2023-02-16T05:19:57;101678.63;;;0.74;100.00
18985;BME280;9626;52.552;13.436;2023-02-16T05:22:24;101682.25;;;0.79;100.00
18985;BME280;9626;52.552;13.436;2023-02-16T05:24:50;101679.56;;;0.76;100.00
18985;BME280;9626;52.552;13.436;2023-02-16T05:27:21;101678.88;;;0.81;100.00
18985;BME280;9626;52.552;13.436;2023-02-16T05:29:48;101680.63;;;0.81;100.00
18985;BME280;9626;52.552;13.436;2023-02-16T05:32:14;101677.38;;;0.88;100.00
18985;BME280;9626;52.552;13.436;2023-02-16T05:34:40;101678.44;;;0.93;100.00
18985;BME280;9626;52.552;13.436;2023-02-16T05:37:09;101674.25;;;0.97;100.00
18985;BME280;9626;52.552;13.436;2023-02-16T05:39:35;101670.63;;;0.93;100.00
18985;BME280;9626;52.552;13.436;2023-02-16T05:42:01;101675.00;;;0.94;100.00
18985;BME280;9626;52.552;13.436;2023-02-16T05:44:28;101669.56;;;0.88;100.00
18985;BME280;9626;52.552;13.436;2023-02-16T05:46:54;101675.59;;;0.87;100.00
18985;BME280;9626;52.552;13.436;2023-02-16T05:49:20;101672.91;;;0.84;100.00
18985;BME280;9626;52.552;13.436;2023-02-16T05:51:46;101672.50;;;0.73;100.00
18985;BME280;9626;52.552;13.436;2023-02-16T05:54:13;101672.47;;;0.72;100.00
18985;BME280;9626;52.552;13.436;2023-02-16T05:56:46;101673.94;;;0.65;100.00
18985;BME280;9626;52.552;13.436;2023-02-16T05:59:13;101676.59;;;0.66;100.00
18985;BME280;9626;52.552;13.436;2023-02-16T06:01:40;101686.31;;;0.71;100.00
18985;BME280;9626;52.552;13.436;2023-02-16T06:04:09;101698.47;;;0.70;100.00
18985;BME280;9626;52.552;13.436;2023-02-16T06:06:36;101692.16;;;0.63;100.00
18985;BME280;9626;52.552;13.436;2023-02-16T06:09:04;101693.78;;;0.61;100.00
18985;BME280;9626;52.552;13.436;2023-02-16T06:11:32;101689.06;;;0.74;100.00
18985;BME280;9626;52.552;13.436;2023-02-16T06:14:09;101689.16;;;0.77;100.00
18985;BME280;9626;52.552;13.436;2023-02-16T06:16:37;101688.38;;;0.79;100.00
18985;BME280;9626;52.552;13.436;2023-02-16T06:19:04;101684.03;;;0.80;100.00
18985;BME280;9626;52.552;13.436;2023-02-16T06:21:30;101692.94;;;0.85;100.00
18985;BME280;9626;52.552;13.436;2023-02-16T06:23:57;101686.75;;;0.83;100.00
18985;BME280;9626;52.552;13.436;2023-02-16T06:26:23;101686.91;;;0.86;100.00
18985;BME280;9626;52.552;13.436;2023-02-16T06:28:50;101694.00;;;0.90;100.00
18985;BME280;9626;52.552;13.436;2023-02-16T06:31:16;101682.13;;;0.98;100.00
18985;BME280;9626;52.552;13.436;2023-02-16T06:33:42;101685.59;;;0.99;100.00
18985;BME280;9626;52.552;13.436;2023-02-16T06:36:09;101690.13;;;1.05;100.00
18985;BME280;9626;52.552;13.436;2023-02-16T06:38:35;101684.91;;;1.05;100.00
18985;BME280;9626;52.552;13.436;2023-02-16T06:41:02;101689.38;;;1.07;100.00
18985;BME280;9626;52.552;13.436;2023-02-16T06:43:28;101688.59;;;1.10;100.00
18985;BME280;9626;52.552;13.436;2023-02-16T06:45:53;101694.63;;;1.09;100.00
18985;BME280;9626;52.552;13.436;2023-02-16T06:48:19;101698.94;;;1.07;100.00
18985;BME280;9626;52.552;13.436;2023-02-16T06:50:45;101706.69;;;1.05;100.00
18985;BME280;9626;52.552;13.436;2023-02-16T06:53:11;101698.97;;;1.08;100.00
18985;BME280;9626;52.552;13.436;2023-02-16T06:55:37;101702.41;;;1.07;100.00
18985;BME280;9626;52.552;13.436;2023-02-16T06:58:05;101704.25;;;1.10;100.00
18985;BME280;9626;52.552;13.436;2023-02-16T07:00:32;101699.31;;;1.17;100.00
18985;BME280;9626;52.552;13.436;2023-02-16T07:02:58;101709.75;;;1.17;100.00
18985;BME280;9626;52.552;13.436;2023-02-16T07:05:25;101699.69;;;1.28;100.00
18985;BME280;9626;52.552;13.436;2023-02-16T07:07:51;101704.63;;;1.46;100.00
18985;BME280;9626;52.552;13.436;2023-02-16T07:10:18;101701.28;;;1.50;100.00
18985;BME280;9626;52.552;13.436;2023-02-16T07:12:46;101705.81;;;1.56;100.00
18985;BME280;9626;52.552;13.436;2023-02-16T07:17:45;101702.97;;;1.76;100.00
18985;BME280;9626;52.552;13.436;2023-02-16T07:20:11;101690.38;;;1.90;100.00
18985;BME280;9626;52.552;13.436;2023-02-16T07:22:37;101692.47;;;2.01;100.00
18985;BME280;9626;52.552;13.436;2023-02-16T07:25:03;101690.94;;;2.08;100.00
18985;BME280;9626;52.552;13.436;2023-02-16T07:27:30;101691.94;;;2.12;100.00
18985;BME280;9626;52.552;13.436;2023-02-16T07:29:56;101690.25;;;2.14;100.00
18985;BME280;9626;52.552;13.436;2023-02-16T07:32:21;101682.44;;;2.15;100.00
18985;BME280;9626;52.552;13.436;2023-02-16T07:34:47;101684.63;;;2.01;100.00
18985;BME280;9626;52.552;13.436;2023-02-16T07:37:14;101686.22;;;1.96;100.00
18985;BME280;9626;52.552;13.436;2023-02-16T07:39:40;101685.59;;;2.03;100.00
18985;BME280;9626;52.552;13.436;2023-02-16T07:42:06;101676.66;;;1.97;100.00
18985;BME280;9626;52.552;13.436;2023-02-16T07:44:32;101682.97;;;2.03;100.00
18985;BME280;9626;52.552;13.436;2023-02-16T07:46:58;101677.88;;;2.08;100.00
18985;BME280;9626;52.552;13.436;2023-02-16T07:49:24;101681.66;;;2.18;100.00
18985;BME280;9626;52.552;13.436;2023-02-16T07:51:50;101685.31;;;2.23;100.00
18985;BME280;9626;52.552;13.436;2023-02-16T07:54:16;101690.94;;;2.37;100.00
18985;BME280;9626;52.552;13.436;2023-02-16T07:56:42;101683.66;;;2.56;100.00
18985;BME280;9626;52.552;13.436;2023-02-16T07:59:08;101689.47;;;2.76;100.00
18985;BME280;9626;52.552;13.436;2023-02-16T08:01:36;101690.00;;;2.96;100.00
18985;BME280;9626;52.552;13.436;2023-02-16T08:04:02;101692.75;;;3.00;100.00
18985;BME280;9626;52.552;13.436;2023-02-16T08:06:28;101691.59;;;3.22;100.00
18985;BME280;9626;52.552;13.436;2023-02-16T08:08:54;101701.19;;;3.22;100.00
18985;BME280;9626;52.552;13.436;2023-02-16T08:11:23;101699.84;;;3.04;100.00
18985;BME280;9626;52.552;13.436;2023-02-16T08:13:50;101692.41;;;3.20;100.00
18985;BME280;9626;52.552;13.436;2023-02-16T08:16:19;101697.50;;;3.49;100.00
18985;BME280;9626;52.552;13.436;2023-02-16T08:18:46;101695.91;;;3.91;100.00
18985;BME280;9626;52.552;13.436;2023-02-16T08:21:14;101703.28;;;3.70;100.00
18985;BME280;9626;52.552;13.436;2023-02-16T08:26:21;101705.16;;;3.76;100.00
18985;BME280;9626;52.552;13.436;2023-02-16T08:28:48;101696.16;;;4.00;100.00
18985;BME280;9626;52.552;13.436;2023-02-16T08:31:17;101699.97;;;4.16;100.00
18985;BME280;9626;52.552;13.436;2023-02-16T08:33:44;101702.72;;;4.60;100.00
18985;BME280;9626;52.552;13.436;2023-02-16T08:38:42;101704.66;;;5.15;100.00
18985;BME280;9626;52.552;13.436;2023-02-16T08:41:08;101697.47;;;5.53;100.00
18985;BME280;9626;52.552;13.436;2023-02-16T08:43:34;101697.50;;;6.05;100.00
18985;BME280;9626;52.552;13.436;2023-02-16T08:46:00;101694.06;;;6.13;100.00
18985;BME280;9626;52.552;13.436;2023-02-16T08:48:26;101696.44;;;6.57;100.00
18985;BME280;9626;52.552;13.436;2023-02-16T08:50:53;101685.47;;;6.93;100.00
18985;BME280;9626;52.552;13.436;2023-02-16T08:53:21;101673.97;;;6.87;100.00
18985;BME280;9626;52.552;13.436;2023-02-16T08:55:55;101683.09;;;7.20;100.00
18985;BME280;9626;52.552;13.436;2023-02-16T08:58:23;101688.75;;;6.74;100.00
18985;BME280;9626;52.552;13.436;2023-02-16T09:00:49;101676.97;;;7.21;100.00
18985;BME280;9626;52.552;13.436;2023-02-16T09:03:16;101689.06;;;7.00;100.00
18985;BME280;9626;52.552;13.436;2023-02-16T09:05:50;101682.81;;;6.93;100.00
18985;BME280;9626;52.552;13.436;2023-02-16T09:08:17;101676.50;;;7.65;100.00
18985;BME280;9626;52.552;13.436;2023-02-16T09:10:46;101692.63;;;8.08;97.18
18985;BME280;9626;52.552;13.436;2023-02-16T09:13:12;101680.34;;;8.10;91.90
18985;BME280;9626;52.552;13.436;2023-02-16T09:15:40;101672.84;;;8.99;81.44
18985;BME280;9626;52.552;13.436;2023-02-16T09:18:08;101675.50;;;9.00;80.26
18985;BME280;9626;52.552;13.436;2023-02-16T09:20:38;101673.78;;;9.48;75.47
18985;BME280;9626;52.552;13.436;2023-02-16T09:23:06;101681.75;;;9.66;72.44
18985;BME280;9626;52.552;13.436;2023-02-16T09:25:34;101679.09;;;9.76;70.44
18985;BME280;9626;52.552;13.436;2023-02-16T09:28:01;101680.84;;;9.37;73.26
18985;BME280;9626;52.552;13.436;2023-02-16T09:30:27;101682.63;;;9.47;74.00
18985;BME280;9626;52.552;13.436;2023-02-16T09:32:53;101682.47;;;10.65;68.94
18985;BME280;9626;52.552;13.436;2023-02-16T09:35:20;101678.25;;;11.70;61.20
18985;BME280;9626;52.552;13.436;2023-02-16T09:37:47;101680.56;;;10.90;64.51
18985;BME280;9626;52.552;13.436;2023-02-16T09:40:15;101681.41;;;11.02;63.81
18985;BME280;9626;52.552;13.436;2023-02-16T09:43:02;101678.28;;;11.65;60.11
18985;BME280;9626;52.552;13.436;2023-02-16T09:45:40;101691.25;;;12.02;56.56
18985;BME280;9626;52.552;13.436;2023-02-16T09:48:35;101680.28;;;11.37;60.31
18985;BME280;9626;52.552;13.436;2023-02-16T09:51:04;101681.06;;;11.46;60.57
18985;BME280;9626;52.552;13.436;2023-02-16T09:53:40;101682.56;;;10.20;65.55
18985;BME280;9626;52.552;13.436;2023-02-16T09:56:27;101663.88;;;10.70;64.64
18985;BME280;9626;52.552;13.436;2023-02-16T09:59:03;101678.81;;;10.91;64.72
18985;BME280;9626;52.552;13.436;2023-02-16T10:01:46;101668.16;;;10.97;60.76
18985;BME280;9626;52.552;13.436;2023-02-16T10:04:39;101667.28;;;10.93;62.33
18985;BME280;9626;52.552;13.436;2023-02-16T10:10:03;101676.78;;;11.30;59.68
18985;BME280;9626;52.552;13.436;2023-02-16T10:12:40;101674.56;;;11.88;58.44
18985;BME280;9626;52.552;13.436;2023-02-16T10:15:13;101677.63;;;12.36;56.40
18985;BME280;9626;52.552;13.436;2023-02-16T10:17:46;101681.06;;;12.44;55.42
18985;BME280;9626;52.552;13.436;2023-02-16T10:20:20;101669.84;;;12.91;53.91
18985;BME280;9626;52.552;13.436;2023-02-16T10:23:10;101675.03;;;13.00;52.77
18985;BME280;9626;52.552;13.436;2023-02-16T10:26:29;101677.47;;;12.48;54.51
18985;BME280;9626;52.552;13.436;2023-02-16T10:28:52;101681.59;;;10.60;61.52
18985;BME280;9626;52.552;13.436;2023-02-16T10:31:52;101672.44;;;11.21;60.80
18985;BME280;9626;52.552;13.436;2023-02-16T10:37:16;101676.38;;;11.82;57.93
18985;BME280;9626;52.552;13.436;2023-02-16T10:47:56;101650.88;;;13.15;53.51
18985;BME280;9626;52.552;13.436;2023-02-16T10:50:31;101650.03;;;14.19;50.31
18985;BME280;9626;52.552;13.436;2023-02-16T10:53:23;101643.75;;;14.24;48.77
18985;BME280;9626;52.552;13.436;2023-02-16T10:55:46;101647.81;;;13.96;49.69
18985;BME280;9626;52.552;13.436;2023-02-16T10:58:19;101639.06;;;12.01;55.10
18985;BME280;9626;52.552;13.436;2023-02-16T11:01:18;101650.50;;;12.06;56.25
18985;BME280;9626;52.552;13.436;2023-02-16T11:03:49;101646.53;;;11.54;58.07
18985;BME280;9626;52.552;13.436;2023-02-16T11:06:18;101646.25;;;11.88;57.24
18985;BME280;9626;52.552;13.436;2023-02-16T11:08:52;101646.69;;;11.37;57.98
18985;BME280;9626;52.552;13.436;2023-02-16T11:11:24;101625.75;;;10.97;60.39
18985;BME280;9626;52.552;13.436;2023-02-16T11:14:00;101643.19;;;11.32;58.88
18985;BME280;9626;52.552;13.436;2023-02-16T11:16:27;101641.41;;;11.34;58.55
18985;BME280;9626;52.552;13.436;2023-02-16T11:18:59;101636.59;;;10.51;61.09
18985;BME280;9626;52.552;13.436;2023-02-16T11:21:49;101634.94;;;10.09;65.33
18985;BME280;9626;52.552;13.436;2023-02-16T11:24:33;101633.19;;;10.08;66.90
18985;BME280;9626;52.552;13.436;2023-02-16T11:29:38;101629.53;;;10.53;65.73
18985;BME280;9626;52.552;13.436;2023-02-16T11:32:09;101627.81;;;10.24;66.19
18985;BME280;9626;52.552;13.436;2023-02-16T11:34:42;101618.94;;;10.48;65.72
18985;BME280;9626;52.552;13.436;2023-02-16T11:37:31;101620.66;;;10.61;63.53
18985;BME280;9626;52.552;13.436;2023-02-16T11:40:17;101633.88;;;10.68;62.55
18985;BME280;9626;52.552;13.436;2023-02-16T11:42:47;101614.38;;;10.78;62.99
18985;BME280;9626;52.552;13.436;2023-02-16T11:45:28;101614.19;;;11.10;60.55
18985;BME280;9626;52.552;13.436;2023-02-16T11:48:09;101607.78;;;11.39;58.89
18985;BME280;9626;52.552;13.436;2023-02-16T11:50:39;101609.53;;;11.42;58.66
18985;BME280;9626;52.552;13.436;2023-02-16T11:55:37;101601.13;;;10.79;63.01
18985;BME280;9626;52.552;13.436;2023-02-16T11:58:25;101604.38;;;11.22;60.80
18985;BME280;9626;52.552;13.436;2023-02-16T12:14:59;101601.25;;;10.61;62.45
18985;BME280;9626;52.552;13.436;2023-02-16T12:23:01;101597.59;;;10.82;61.89
18985;BME280;9626;52.552;13.436;2023-02-16T12:39:49;101576.88;;;11.33;60.49
18985;BME280;9626;52.552;13.436;2023-02-16T12:45:19;101569.47;;;11.71;59.55
18985;BME280;9626;52.552;13.436;2023-02-16T12:50:27;101574.47;;;12.72;55.41
18985;BME280;9626;52.552;13.436;2023-02-16T12:52:57;101574.97;;;12.33;55.45
18985;BME280;9626;52.552;13.436;2023-02-16T12:55:43;101572.31;;;12.33;56.28
18985;BME280;9626;52.552;13.436;2023-02-16T13:00:48;101567.25;;;11.23;59.44
18985;BME280;9626;52.552;13.436;2023-02-16T13:03:19;101569.25;;;10.95;61.24
18985;BME280;9626;52.552;13.436;2023-02-16T13:08:31;101557.13;;;11.65;59.14
18985;BME280;9626;52.552;13.436;2023-02-16T13:13:35;101557.00;;;11.79;57.88
18985;BME280;9626;52.552;13.436;2023-02-16T13:16:15;101547.09;;;11.97;57.24
18985;BME280;9626;52.552;13.436;2023-02-16T13:18:46;101556.88;;;11.90;56.78
18985;BME280;9626;52.552;13.436;2023-02-16T13:21:36;101553.75;;;11.51;58.95
18985;BME280;9626;52.552;13.436;2023-02-16T13:34:24;101538.69;;;11.53;60.01
18985;BME280;9626;52.552;13.436;2023-02-16T13:40:00;101542.78;;;12.57;55.47
18985;BME280;9626;52.552;13.436;2023-02-16T13:44:58;101543.78;;;12.49;55.97
18985;BME280;9626;52.552;13.436;2023-02-16T13:47:29;101546.53;;;12.40;56.74
18985;BME280;9626;52.552;13.436;2023-02-16T13:49:58;101539.16;;;12.61;56.21
18985;BME280;9626;52.552;13.436;2023-02-16T13:52:33;101546.97;;;12.72;55.88
18985;BME280;9626;52.552;13.436;2023-02-16T13:55:03;101537.81;;;13.47;53.34
18985;BME280;9626;52.552;13.436;2023-02-16T14:00:44;101537.91;;;12.87;54.66
18985;BME280;9626;52.552;13.436;2023-02-16T14:05:46;101539.19;;;11.89;59.86
18985;BME280;9626;52.552;13.436;2023-02-16T14:08:24;101542.13;;;11.63;60.54
18985;BME280;9626;52.552;13.436;2023-02-16T14:13:27;101528.38;;;11.21;63.38
18985;BME280;9626;52.552;13.436;2023-02-16T14:15:56;101524.91;;;11.15;63.32
18985;BME280;9626;52.552;13.436;2023-02-16T14:18:44;101536.38;;;11.18;63.61
18985;BME280;9626;52.552;13.436;2023-02-16T14:24:01;101540.91;;;11.06;65.38
18985;BME280;9626;52.552;13.436;2023-02-16T14:26:29;101543.53;;;11.06;65.82
18985;BME280;9626;52.552;13.436;2023-02-16T14:29:07;101536.50;;;11.04;65.16
18985;BME280;9626;52.552;13.436;2023-02-16T14:32:33;101533.81;;;11.05;65.34
18985;BME280;9626;52.552;13.436;2023-02-16T14:34:50;101525.06;;;10.97;66.33
18985;BME280;9626;52.552;13.436;2023-02-16T14:37:34;101531.25;;;10.94;66.21
18985;BME280;9626;52.552;13.436;2023-02-16T14:40:36;101543.59;;;10.98;66.87
18985;BME280;9626;52.552;13.436;2023-02-16T14:43:02;101534.81;;;10.95;66.25
18985;BME280;9626;52.552;13.436;2023-02-16T14:45:52;101529.59;;;10.81;66.90
18985;BME280;9626;52.552;13.436;2023-02-16T14:56:52;101534.03;;;10.80;68.24
18985;BME280;9626;52.552;13.436;2023-02-16T14:59:27;101526.88;;;10.89;66.86
18985;BME280;9626;52.552;13.436;2023-02-16T15:01:54;101534.00;;;10.83;67.48
18985;BME280;9626;52.552;13.436;2023-02-16T15:04:28;101523.41;;;10.87;66.96
18985;BME280;9626;52.552;13.436;2023-02-16T15:06:57;101518.91;;;10.93;67.55
18985;BME280;9626;52.552;13.436;2023-02-16T15:09:27;101519.84;;;10.85;67.90
18985;BME280;9626;52.552;13.436;2023-02-16T15:12:09;101518.13;;;10.80;67.63
18985;BME280;9626;52.552;13.436;2023-02-16T15:14:58;101523.41;;;10.87;67.48
18985;BME280;9626;52.552;13.436;2023-02-16T15:17:37;101530.44;;;10.88;67.09
18985;BME280;9626;52.552;13.436;2023-02-16T15:20:31;101525.16;;;10.85;67.82
18985;BME280;9626;52.552;13.436;2023-02-16T15:22:59;101525.19;;;10.77;68.05
18985;BME280;9626;52.552;13.436;2023-02-16T15:27:59;101527.88;;;10.75;68.57
18985;BME280;9626;52.552;13.436;2023-02-16T15:30:28;101527.88;;;10.78;68.17